This is the latest recevied weather packets stored in our database for station/object HS5SQI-1. If no packets are shown the sender has not sent any weather packets the latest 10 day(s).
| Time | Temp. | Humidity | Pressure | Rain* | Wind** | Luminosity | Snow |
|---|---|---|---|---|---|---|---|
| 1777906382 | 30° C | 99% | 966 hPa | - | - | 0 W/m² | - |
| 1777905760 | 29.44° C | 99% | 966 hPa | - | - | 0 W/m² | - |
| 1777905139 | 32.22° C | 90% | 965 hPa | - | - | 0 W/m² | - |
| 1777904517 | 32.78° C | 79% | 965 hPa | - | - | 0 W/m² | - |
| 1777903895 | 33.33° C | 77% | 965 hPa | - | - | 0 W/m² | - |
| 1777903273 | 33.33° C | 77% | 965 hPa | - | - | 0 W/m² | - |
| 1777902650 | 33.33° C | 71% | 965 hPa | - | - | 0 W/m² | - |
| 1777902028 | 33.33° C | 68% | 964 hPa | - | - | 0 W/m² | - |
| 1777901406 | 32.78° C | 66% | 964 hPa | - | - | 0 W/m² | - |
| 1777900784 | 33.33° C | 65% | 964 hPa | - | - | 0 W/m² | - |
| 1777900162 | 33.33° C | 64% | 964 hPa | - | - | 0 W/m² | - |
| 1777899540 | 33.89° C | 62% | 964 hPa | - | - | 0 W/m² | - |
| 1777898918 | 33.89° C | 62% | 963 hPa | - | - | 0 W/m² | - |
| 1777898296 | 33.89° C | 63% | 963 hPa | - | - | 0 W/m² | - |
| 1777897674 | 34.44° C | 61% | 963 hPa | - | - | 0 W/m² | - |
| 1777897052 | 34.44° C | 62% | 963 hPa | - | - | 0 W/m² | - |
| 1777896430 | 34.44° C | 59% | 963 hPa | - | - | 0 W/m² | - |
| 1777895808 | 34.44° C | 62% | 963 hPa | - | - | 0 W/m² | - |
| 1777895186 | 34.44° C | 56% | 963 hPa | - | - | 0 W/m² | - |
| 1777894564 | 35° C | 54% | 963 hPa | - | - | 0 W/m² | - |
| 1777893942 | 35° C | 53% | 963 hPa | - | - | 0 W/m² | - |
| 1777893320 | 35° C | 51% | 963 hPa | - | - | 0 W/m² | - |
| 1777892698 | 35.56° C | 50% | 962 hPa | - | - | 0 W/m² | - |
| 1777892076 | 35.56° C | 49% | 962 hPa | - | - | 0 W/m² | - |
| 1777891454 | 36.11° C | 47% | 962 hPa | - | - | 0 W/m² | - |
* Rain since midnight (hover to see other rain measurements)
** Current wind speed in m/s (hover to see current wind gust speed)